sensor_id;sensor_type;location;lat;lon;timestamp;P1;durP1;ratioP1;P2;durP2;ratioP2
34741;SDS011;20968;42.696;23.360;2022-08-25T00:02:00;21.02;;;8.20;;
34741;SDS011;20968;42.696;23.360;2022-08-25T00:04:27;15.60;;;6.93;;
34741;SDS011;20968;42.696;23.360;2022-08-25T00:06:53;17.27;;;7.30;;
34741;SDS011;20968;42.696;23.360;2022-08-25T00:09:21;13.60;;;6.43;;
34741;SDS011;20968;42.696;23.360;2022-08-25T00:11:49;19.25;;;6.97;;
34741;SDS011;20968;42.696;23.360;2022-08-25T00:14:17;20.30;;;6.30;;
34741;SDS011;20968;42.696;23.360;2022-08-25T00:16:45;16.60;;;6.88;;
34741;SDS011;20968;42.696;23.360;2022-08-25T00:19:21;17.08;;;7.45;;
34741;SDS011;20968;42.696;23.360;2022-08-25T00:21:49;16.23;;;8.27;;
34741;SDS011;20968;42.696;23.360;2022-08-25T00:24:15;21.70;;;7.00;;
34741;SDS011;20968;42.696;23.360;2022-08-25T00:26:44;20.17;;;7.93;;
34741;SDS011;20968;42.696;23.360;2022-08-25T00:29:11;21.70;;;7.07;;
34741;SDS011;20968;42.696;23.360;2022-08-25T00:31:37;14.60;;;6.75;;
34741;SDS011;20968;42.696;23.360;2022-08-25T00:34:03;14.13;;;7.45;;
34741;SDS011;20968;42.696;23.360;2022-08-25T00:36:31;13.32;;;7.78;;
34741;SDS011;20968;42.696;23.360;2022-08-25T00:38:58;14.35;;;8.55;;
34741;SDS011;20968;42.696;23.360;2022-08-25T00:41:23;17.27;;;7.10;;
34741;SDS011;20968;42.696;23.360;2022-08-25T00:46:19;19.08;;;7.47;;
34741;SDS011;20968;42.696;23.360;2022-08-25T00:48:51;20.63;;;8.23;;
34741;SDS011;20968;42.696;23.360;2022-08-25T00:51:25;23.05;;;7.55;;
34741;SDS011;20968;42.696;23.360;2022-08-25T00:53:57;20.55;;;7.22;;
34741;SDS011;20968;42.696;23.360;2022-08-25T00:56:24;17.00;;;8.40;;
34741;SDS011;20968;42.696;23.360;2022-08-25T00:58:52;15.80;;;7.75;;
34741;SDS011;20968;42.696;23.360;2022-08-25T01:01:17;16.27;;;7.80;;
34741;SDS011;20968;42.696;23.360;2022-08-25T01:03:43;16.85;;;7.95;;
34741;SDS011;20968;42.696;23.360;2022-08-25T01:06:09;8.50;;;6.53;;
34741;SDS011;20968;42.696;23.360;2022-08-25T01:08:36;14.25;;;8.13;;
34741;SDS011;20968;42.696;23.360;2022-08-25T01:11:03;18.70;;;7.80;;
34741;SDS011;20968;42.696;23.360;2022-08-25T01:13:32;14.98;;;7.25;;
34741;SDS011;20968;42.696;23.360;2022-08-25T01:16:01;12.98;;;7.38;;
34741;SDS011;20968;42.696;23.360;2022-08-25T01:18:27;15.68;;;8.10;;
34741;SDS011;20968;42.696;23.360;2022-08-25T01:20:57;16.42;;;7.45;;
34741;SDS011;20968;42.696;23.360;2022-08-25T01:23:23;15.60;;;6.72;;
34741;SDS011;20968;42.696;23.360;2022-08-25T01:25:55;14.30;;;8.23;;
34741;SDS011;20968;42.696;23.360;2022-08-25T01:28:29;21.10;;;8.77;;
34741;SDS011;20968;42.696;23.360;2022-08-25T01:30:55;16.77;;;7.57;;
34741;SDS011;20968;42.696;23.360;2022-08-25T01:33:21;18.95;;;7.55;;
34741;SDS011;20968;42.696;23.360;2022-08-25T01:35:46;31.98;;;7.72;;
34741;SDS011;20968;42.696;23.360;2022-08-25T01:38:12;24.42;;;7.63;;
34741;SDS011;20968;42.696;23.360;2022-08-25T01:40:40;16.50;;;7.40;;
34741;SDS011;20968;42.696;23.360;2022-08-25T01:45:37;22.58;;;7.38;;
34741;SDS011;20968;42.696;23.360;2022-08-25T01:48:06;21.67;;;6.60;;
34741;SDS011;20968;42.696;23.360;2022-08-25T01:50:32;20.00;;;6.90;;
34741;SDS011;20968;42.696;23.360;2022-08-25T01:55:46;22.73;;;6.30;;
34741;SDS011;20968;42.696;23.360;2022-08-25T02:00:53;11.93;;;5.43;;
34741;SDS011;20968;42.696;23.360;2022-08-25T02:03:21;14.75;;;6.32;;
34741;SDS011;20968;42.696;23.360;2022-08-25T02:05:49;7.78;;;4.97;;
34741;SDS011;20968;42.696;23.360;2022-08-25T02:08:17;18.15;;;6.43;;
34741;SDS011;20968;42.696;23.360;2022-08-25T02:10:43;26.65;;;5.57;;
34741;SDS011;20968;42.696;23.360;2022-08-25T02:13:12;18.55;;;7.68;;
34741;SDS011;20968;42.696;23.360;2022-08-25T02:15:43;13.00;;;5.60;;
34741;SDS011;20968;42.696;23.360;2022-08-25T02:18:12;14.48;;;6.85;;
34741;SDS011;20968;42.696;23.360;2022-08-25T02:20:38;15.07;;;6.07;;
34741;SDS011;20968;42.696;23.360;2022-08-25T02:23:04;21.25;;;5.65;;
34741;SDS011;20968;42.696;23.360;2022-08-25T02:25:31;13.30;;;6.00;;
34741;SDS011;20968;42.696;23.360;2022-08-25T02:27:58;14.80;;;5.45;;
34741;SDS011;20968;42.696;23.360;2022-08-25T02:30:24;21.85;;;6.13;;
34741;SDS011;20968;42.696;23.360;2022-08-25T02:32:50;58.10;;;9.02;;
34741;SDS011;20968;42.696;23.360;2022-08-25T02:35:21;33.22;;;6.97;;
34741;SDS011;20968;42.696;23.360;2022-08-25T02:37:49;21.65;;;6.88;;
34741;SDS011;20968;42.696;23.360;2022-08-25T02:40:15;17.08;;;5.80;;
34741;SDS011;20968;42.696;23.360;2022-08-25T02:42:41;22.88;;;5.88;;
34741;SDS011;20968;42.696;23.360;2022-08-25T02:45:06;30.02;;;6.88;;
34741;SDS011;20968;42.696;23.360;2022-08-25T02:47:35;22.33;;;6.07;;
34741;SDS011;20968;42.696;23.360;2022-08-25T02:50:02;20.05;;;6.70;;
34741;SDS011;20968;42.696;23.360;2022-08-25T02:52:29;17.50;;;5.82;;
34741;SDS011;20968;42.696;23.360;2022-08-25T02:54:55;21.52;;;7.78;;
34741;SDS011;20968;42.696;23.360;2022-08-25T02:57:21;19.85;;;6.55;;
34741;SDS011;20968;42.696;23.360;2022-08-25T02:59:46;21.40;;;6.20;;
34741;SDS011;20968;42.696;23.360;2022-08-25T03:02:12;12.23;;;5.43;;
34741;SDS011;20968;42.696;23.360;2022-08-25T03:04:38;18.05;;;6.25;;
34741;SDS011;20968;42.696;23.360;2022-08-25T03:07:04;11.00;;;5.40;;
34741;SDS011;20968;42.696;23.360;2022-08-25T03:09:29;22.50;;;6.00;;
34741;SDS011;20968;42.696;23.360;2022-08-25T03:11:55;9.30;;;5.20;;
34741;SDS011;20968;42.696;23.360;2022-08-25T03:14:20;20.00;;;6.63;;
34741;SDS011;20968;42.696;23.360;2022-08-25T03:16:47;16.00;;;5.47;;
34741;SDS011;20968;42.696;23.360;2022-08-25T03:19:13;15.32;;;6.20;;
34741;SDS011;20968;42.696;23.360;2022-08-25T03:21:38;11.25;;;5.57;;
34741;SDS011;20968;42.696;23.360;2022-08-25T03:24:04;21.27;;;6.63;;
34741;SDS011;20968;42.696;23.360;2022-08-25T03:26:30;24.50;;;7.63;;
34741;SDS011;20968;42.696;23.360;2022-08-25T03:29:15;14.15;;;5.60;;
34741;SDS011;20968;42.696;23.360;2022-08-25T03:31:41;12.60;;;5.50;;
34741;SDS011;20968;42.696;23.360;2022-08-25T03:34:08;10.95;;;5.25;;
34741;SDS011;20968;42.696;23.360;2022-08-25T03:36:34;10.35;;;4.65;;
34741;SDS011;20968;42.696;23.360;2022-08-25T03:39:00;8.63;;;4.15;;
34741;SDS011;20968;42.696;23.360;2022-08-25T03:41:27;3.78;;;2.90;;
34741;SDS011;20968;42.696;23.360;2022-08-25T03:43:56;8.55;;;4.07;;
34741;SDS011;20968;42.696;23.360;2022-08-25T03:46:24;7.40;;;2.75;;
34741;SDS011;20968;42.696;23.360;2022-08-25T03:48:54;4.60;;;3.38;;
34741;SDS011;20968;42.696;23.360;2022-08-25T03:51:24;4.82;;;3.28;;
34741;SDS011;20968;42.696;23.360;2022-08-25T03:53:52;3.72;;;2.20;;
34741;SDS011;20968;42.696;23.360;2022-08-25T03:56:18;6.05;;;2.65;;
34741;SDS011;20968;42.696;23.360;2022-08-25T03:58:44;4.50;;;2.88;;
34741;SDS011;20968;42.696;23.360;2022-08-25T04:01:11;5.10;;;3.28;;
34741;SDS011;20968;42.696;23.360;2022-08-25T04:06:22;2.78;;;2.47;;
34741;SDS011;20968;42.696;23.360;2022-08-25T04:08:48;5.68;;;2.60;;
34741;SDS011;20968;42.696;23.360;2022-08-25T04:11:17;5.57;;;3.30;;
34741;SDS011;20968;42.696;23.360;2022-08-25T04:13:45;6.15;;;3.25;;
34741;SDS011;20968;42.696;23.360;2022-08-25T04:16:12;6.10;;;3.63;;
34741;SDS011;20968;42.696;23.360;2022-08-25T04:18:40;4.70;;;4.00;;
34741;SDS011;20968;42.696;23.360;2022-08-25T04:21:07;5.35;;;3.30;;
34741;SDS011;20968;42.696;23.360;2022-08-25T04:23:34;3.75;;;2.55;;
34741;SDS011;20968;42.696;23.360;2022-08-25T04:26:08;3.05;;;2.47;;
34741;SDS011;20968;42.696;23.360;2022-08-25T04:28:34;4.80;;;2.95;;
34741;SDS011;20968;42.696;23.360;2022-08-25T04:30:59;5.15;;;3.28;;
34741;SDS011;20968;42.696;23.360;2022-08-25T04:33:25;4.85;;;3.03;;
34741;SDS011;20968;42.696;23.360;2022-08-25T04:35:50;6.60;;;3.83;;
34741;SDS011;20968;42.696;23.360;2022-08-25T04:38:15;3.58;;;2.72;;
34741;SDS011;20968;42.696;23.360;2022-08-25T04:40:41;3.83;;;2.75;;
34741;SDS011;20968;42.696;23.360;2022-08-25T04:43:06;6.15;;;2.80;;
34741;SDS011;20968;42.696;23.360;2022-08-25T04:45:37;5.10;;;3.10;;
34741;SDS011;20968;42.696;23.360;2022-08-25T04:48:12;4.35;;;2.72;;
34741;SDS011;20968;42.696;23.360;2022-08-25T04:50:39;9.63;;;4.43;;
34741;SDS011;20968;42.696;23.360;2022-08-25T04:53:11;15.15;;;4.13;;
34741;SDS011;20968;42.696;23.360;2022-08-25T04:55:51;9.57;;;4.00;;
34741;SDS011;20968;42.696;23.360;2022-08-25T04:58:18;8.02;;;2.88;;
34741;SDS011;20968;42.696;23.360;2022-08-25T05:00:43;3.60;;;2.92;;
34741;SDS011;20968;42.696;23.360;2022-08-25T05:03:11;3.63;;;3.13;;
34741;SDS011;20968;42.696;23.360;2022-08-25T05:05:37;2.60;;;2.40;;
34741;SDS011;20968;42.696;23.360;2022-08-25T05:08:03;14.35;;;4.22;;
34741;SDS011;20968;42.696;23.360;2022-08-25T05:10:30;5.18;;;3.08;;
34741;SDS011;20968;42.696;23.360;2022-08-25T05:12:59;7.25;;;3.47;;
34741;SDS011;20968;42.696;23.360;2022-08-25T05:15:25;6.18;;;3.17;;
34741;SDS011;20968;42.696;23.360;2022-08-25T05:18:09;2.88;;;2.33;;
34741;SDS011;20968;42.696;23.360;2022-08-25T05:20:36;6.85;;;3.70;;
34741;SDS011;20968;42.696;23.360;2022-08-25T05:23:02;7.57;;;2.55;;
34741;SDS011;20968;42.696;23.360;2022-08-25T05:25:30;6.20;;;3.28;;
34741;SDS011;20968;42.696;23.360;2022-08-25T05:28:00;3.97;;;3.05;;
34741;SDS011;20968;42.696;23.360;2022-08-25T05:30:32;3.75;;;2.45;;
34741;SDS011;20968;42.696;23.360;2022-08-25T05:33:01;3.95;;;2.83;;
34741;SDS011;20968;42.696;23.360;2022-08-25T05:35:28;9.90;;;3.80;;
34741;SDS011;20968;42.696;23.360;2022-08-25T05:37:55;7.97;;;4.55;;
34741;SDS011;20968;42.696;23.360;2022-08-25T05:40:21;6.40;;;3.08;;
34741;SDS011;20968;42.696;23.360;2022-08-25T05:42:48;4.32;;;2.88;;
34741;SDS011;20968;42.696;23.360;2022-08-25T05:45:14;4.60;;;3.90;;
34741;SDS011;20968;42.696;23.360;2022-08-25T05:47:43;7.55;;;3.33;;
34741;SDS011;20968;42.696;23.360;2022-08-25T05:50:09;7.93;;;3.13;;
34741;SDS011;20968;42.696;23.360;2022-08-25T05:52:35;13.40;;;4.95;;
34741;SDS011;20968;42.696;23.360;2022-08-25T05:55:01;9.65;;;2.50;;
34741;SDS011;20968;42.696;23.360;2022-08-25T05:57:27;4.32;;;3.20;;
34741;SDS011;20968;42.696;23.360;2022-08-25T05:59:52;4.32;;;2.67;;
34741;SDS011;20968;42.696;23.360;2022-08-25T06:02:18;2.80;;;2.60;;
34741;SDS011;20968;42.696;23.360;2022-08-25T06:05:02;11.45;;;4.30;;
34741;SDS011;20968;42.696;23.360;2022-08-25T06:07:28;4.22;;;3.72;;
34741;SDS011;20968;42.696;23.360;2022-08-25T06:09:53;12.10;;;3.38;;
34741;SDS011;20968;42.696;23.360;2022-08-25T06:12:19;5.38;;;3.85;;
34741;SDS011;20968;42.696;23.360;2022-08-25T06:14:45;4.82;;;2.95;;
34741;SDS011;20968;42.696;23.360;2022-08-25T06:19:59;4.53;;;2.80;;
34741;SDS011;20968;42.696;23.360;2022-08-25T06:22:25;4.78;;;3.63;;
34741;SDS011;20968;42.696;23.360;2022-08-25T06:24:51;3.70;;;3.30;;
34741;SDS011;20968;42.696;23.360;2022-08-25T06:27:17;5.07;;;3.05;;
34741;SDS011;20968;42.696;23.360;2022-08-25T06:29:43;5.53;;;3.00;;
34741;SDS011;20968;42.696;23.360;2022-08-25T06:32:10;4.10;;;3.67;;
34741;SDS011;20968;42.696;23.360;2022-08-25T06:34:35;2.78;;;2.47;;
34741;SDS011;20968;42.696;23.360;2022-08-25T06:37:01;4.55;;;3.90;;
34741;SDS011;20968;42.696;23.360;2022-08-25T06:39:27;5.15;;;2.78;;
34741;SDS011;20968;42.696;23.360;2022-08-25T06:41:58;5.07;;;3.30;;
34741;SDS011;20968;42.696;23.360;2022-08-25T06:44:26;7.80;;;3.70;;
34741;SDS011;20968;42.696;23.360;2022-08-25T06:46:51;5.60;;;3.78;;
34741;SDS011;20968;42.696;23.360;2022-08-25T06:49:17;5.13;;;2.90;;
34741;SDS011;20968;42.696;23.360;2022-08-25T06:51:47;4.22;;;2.83;;
34741;SDS011;20968;42.696;23.360;2022-08-25T06:54:14;4.05;;;2.45;;
34741;SDS011;20968;42.696;23.360;2022-08-25T06:56:41;2.90;;;2.50;;
34741;SDS011;20968;42.696;23.360;2022-08-25T06:59:08;5.95;;;3.80;;
34741;SDS011;20968;42.696;23.360;2022-08-25T07:04:26;5.10;;;3.20;;
34741;SDS011;20968;42.696;23.360;2022-08-25T07:06:53;5.95;;;3.53;;
34741;SDS011;20968;42.696;23.360;2022-08-25T07:09:19;8.30;;;3.42;;
34741;SDS011;20968;42.696;23.360;2022-08-25T07:11:44;5.43;;;3.60;;
34741;SDS011;20968;42.696;23.360;2022-08-25T07:14:11;3.75;;;3.10;;
34741;SDS011;20968;42.696;23.360;2022-08-25T07:16:38;4.10;;;3.13;;
34741;SDS011;20968;42.696;23.360;2022-08-25T07:19:05;6.35;;;3.53;;
34741;SDS011;20968;42.696;23.360;2022-08-25T07:21:32;5.15;;;3.03;;
34741;SDS011;20968;42.696;23.360;2022-08-25T07:24:00;3.97;;;2.95;;
34741;SDS011;20968;42.696;23.360;2022-08-25T07:26:28;4.57;;;2.97;;
34741;SDS011;20968;42.696;23.360;2022-08-25T07:28:55;2.88;;;2.55;;
34741;SDS011;20968;42.696;23.360;2022-08-25T07:31:22;4.82;;;2.92;;
34741;SDS011;20968;42.696;23.360;2022-08-25T07:33:48;4.05;;;2.90;;
34741;SDS011;20968;42.696;23.360;2022-08-25T07:36:32;3.40;;;1.85;;
34741;SDS011;20968;42.696;23.360;2022-08-25T07:38:57;4.18;;;2.42;;
34741;SDS011;20968;42.696;23.360;2022-08-25T07:41:24;5.63;;;3.00;;
34741;SDS011;20968;42.696;23.360;2022-08-25T07:43:50;5.68;;;3.65;;
34741;SDS011;20968;42.696;23.360;2022-08-25T07:46:16;2.45;;;2.25;;
34741;SDS011;20968;42.696;23.360;2022-08-25T07:48:41;2.15;;;1.95;;
34741;SDS011;20968;42.696;23.360;2022-08-25T07:51:07;7.93;;;3.42;;
34741;SDS011;20968;42.696;23.360;2022-08-25T07:53:35;4.82;;;3.17;;
34741;SDS011;20968;42.696;23.360;2022-08-25T07:56:00;6.57;;;3.55;;
34741;SDS011;20968;42.696;23.360;2022-08-25T07:58:26;2.42;;;2.08;;
34741;SDS011;20968;42.696;23.360;2022-08-25T08:00:51;6.00;;;2.30;;
34741;SDS011;20968;42.696;23.360;2022-08-25T08:03:17;7.03;;;2.38;;
34741;SDS011;20968;42.696;23.360;2022-08-25T08:05:44;2.92;;;2.08;;
34741;SDS011;20968;42.696;23.360;2022-08-25T08:08:10;3.10;;;2.45;;
34741;SDS011;20968;42.696;23.360;2022-08-25T08:10:39;3.05;;;2.28;;
34741;SDS011;20968;42.696;23.360;2022-08-25T08:13:05;4.80;;;2.95;;
34741;SDS011;20968;42.696;23.360;2022-08-25T08:15:32;3.35;;;2.05;;
34741;SDS011;20968;42.696;23.360;2022-08-25T08:17:58;3.95;;;2.40;;
34741;SDS011;20968;42.696;23.360;2022-08-25T08:20:24;1.92;;;1.52;;
34741;SDS011;20968;42.696;23.360;2022-08-25T08:22:49;3.90;;;2.03;;
34741;SDS011;20968;42.696;23.360;2022-08-25T08:25:15;3.53;;;2.03;;
34741;SDS011;20968;42.696;23.360;2022-08-25T08:27:41;8.00;;;2.90;;
34741;SDS011;20968;42.696;23.360;2022-08-25T08:30:07;3.88;;;2.63;;
34741;SDS011;20968;42.696;23.360;2022-08-25T08:32:33;3.75;;;2.97;;
34741;SDS011;20968;42.696;23.360;2022-08-25T08:34:59;5.30;;;2.10;;
34741;SDS011;20968;42.696;23.360;2022-08-25T08:37:25;3.30;;;1.63;;
34741;SDS011;20968;42.696;23.360;2022-08-25T08:39:52;5.22;;;2.15;;
34741;SDS011;20968;42.696;23.360;2022-08-25T08:43:18;2.88;;;1.45;;
34741;SDS011;20968;42.696;23.360;2022-08-25T08:45:21;3.85;;;2.20;;
34741;SDS011;20968;42.696;23.360;2022-08-25T08:48:02;3.10;;;1.92;;
34741;SDS011;20968;42.696;23.360;2022-08-25T08:55:50;3.50;;;1.38;;
34741;SDS011;20968;42.696;23.360;2022-08-25T08:58:23;7.03;;;1.60;;
34741;SDS011;20968;42.696;23.360;2022-08-25T09:00:56;15.05;;;2.22;;
34741;SDS011;20968;42.696;23.360;2022-08-25T09:05:58;1.85;;;1.38;;
34741;SDS011;20968;42.696;23.360;2022-08-25T09:08:27;4.55;;;1.80;;
34741;SDS011;20968;42.696;23.360;2022-08-25T09:16:08;3.72;;;2.15;;
34741;SDS011;20968;42.696;23.360;2022-08-25T09:19:19;2.28;;;1.23;;
34741;SDS011;20968;42.696;23.360;2022-08-25T09:21:58;4.32;;;2.10;;
34741;SDS011;20968;42.696;23.360;2022-08-25T09:25:12;7.18;;;1.92;;
34741;SDS011;20968;42.696;23.360;2022-08-25T09:27:20;6.43;;;1.90;;
34741;SDS011;20968;42.696;23.360;2022-08-25T09:30:09;4.53;;;2.00;;
34741;SDS011;20968;42.696;23.360;2022-08-25T09:32:40;4.93;;;1.45;;
34741;SDS011;20968;42.696;23.360;2022-08-25T09:35:12;3.38;;;1.55;;
34741;SDS011;20968;42.696;23.360;2022-08-25T09:37:53;3.45;;;1.42;;
34741;SDS011;20968;42.696;23.360;2022-08-25T09:40:20;22.33;;;2.45;;
34741;SDS011;20968;42.696;23.360;2022-08-25T09:42:50;1.48;;;0.73;;
34741;SDS011;20968;42.696;23.360;2022-08-25T09:50:59;6.28;;;1.92;;
34741;SDS011;20968;42.696;23.360;2022-08-25T09:54:03;5.25;;;1.25;;
34741;SDS011;20968;42.696;23.360;2022-08-25T09:56:30;3.97;;;2.03;;
34741;SDS011;20968;42.696;23.360;2022-08-25T09:59:19;3.78;;;1.95;;
34741;SDS011;20968;42.696;23.360;2022-08-25T10:01:58;1.27;;;0.88;;
34741;SDS011;20968;42.696;23.360;2022-08-25T10:07:04;4.32;;;1.08;;
34741;SDS011;20968;42.696;23.360;2022-08-25T10:09:45;5.80;;;0.77;;
34741;SDS011;20968;42.696;23.360;2022-08-25T10:12:29;2.20;;;1.17;;
34741;SDS011;20968;42.696;23.360;2022-08-25T10:14:57;2.05;;;1.20;;
34741;SDS011;20968;42.696;23.360;2022-08-25T10:17:27;6.05;;;2.50;;
34741;SDS011;20968;42.696;23.360;2022-08-25T10:20:15;4.80;;;1.50;;
34741;SDS011;20968;42.696;23.360;2022-08-25T10:22:46;9.85;;;1.73;;
34741;SDS011;20968;42.696;23.360;2022-08-25T10:25:13;2.35;;;0.82;;
34741;SDS011;20968;42.696;23.360;2022-08-25T10:27:50;1.40;;;0.85;;
34741;SDS011;20968;42.696;23.360;2022-08-25T10:30:35;2.25;;;0.70;;
34741;SDS011;20968;42.696;23.360;2022-08-25T10:39:02;4.13;;;1.10;;
34741;SDS011;20968;42.696;23.360;2022-08-25T10:41:44;3.25;;;1.67;;
34741;SDS011;20968;42.696;23.360;2022-08-25T10:44:17;2.78;;;1.48;;
34741;SDS011;20968;42.696;23.360;2022-08-25T10:50:12;3.92;;;1.45;;
34741;SDS011;20968;42.696;23.360;2022-08-25T10:58:44;2.55;;;1.08;;
34741;SDS011;20968;42.696;23.360;2022-08-25T11:07:24;2.35;;;1.58;;
34741;SDS011;20968;42.696;23.360;2022-08-25T11:09:56;5.78;;;1.58;;
34741;SDS011;20968;42.696;23.360;2022-08-25T11:12:31;1.80;;;1.30;;
34741;SDS011;20968;42.696;23.360;2022-08-25T11:15:11;3.40;;;1.05;;
34741;SDS011;20968;42.696;23.360;2022-08-25T11:17:44;3.42;;;1.25;;
34741;SDS011;20968;42.696;23.360;2022-08-25T11:20:23;5.63;;;1.33;;
34741;SDS011;20968;42.696;23.360;2022-08-25T11:25:42;6.88;;;3.33;;
34741;SDS011;20968;42.696;23.360;2022-08-25T11:28:13;3.42;;;0.90;;
34741;SDS011;20968;42.696;23.360;2022-08-25T11:31:06;6.63;;;1.35;;
34741;SDS011;20968;42.696;23.360;2022-08-25T11:33:33;7.80;;;1.83;;
34741;SDS011;20968;42.696;23.360;2022-08-25T11:36:04;6.65;;;0.95;;
34741;SDS011;20968;42.696;23.360;2022-08-25T11:43:54;3.08;;;0.73;;
34741;SDS011;20968;42.696;23.360;2022-08-25T11:52:01;3.03;;;1.58;;
34741;SDS011;20968;42.696;23.360;2022-08-25T11:54:41;1.25;;;0.77;;
34741;SDS011;20968;42.696;23.360;2022-08-25T11:57:08;4.78;;;1.55;;
34741;SDS011;20968;42.696;23.360;2022-08-25T12:05:49;5.32;;;1.55;;
34741;SDS011;20968;42.696;23.360;2022-08-25T12:07:57;6.28;;;1.08;;
34741;SDS011;20968;42.696;23.360;2022-08-25T12:13:40;9.52;;;1.90;;
34741;SDS011;20968;42.696;23.360;2022-08-25T12:22:37;6.82;;;1.02;;
34741;SDS011;20968;42.696;23.360;2022-08-25T12:27:09;2.00;;;1.15;;
34741;SDS011;20968;42.696;23.360;2022-08-25T12:29:39;3.83;;;1.05;;
34741;SDS011;20968;42.696;23.360;2022-08-25T12:35:06;8.63;;;1.70;;
34741;SDS011;20968;42.696;23.360;2022-08-25T12:37:34;1.70;;;0.88;;
34741;SDS011;20968;42.696;23.360;2022-08-25T12:40:24;1.60;;;1.10;;
34741;SDS011;20968;42.696;23.360;2022-08-25T12:42:59;7.68;;;1.13;;
34741;SDS011;20968;42.696;23.360;2022-08-25T12:51:06;1.33;;;1.10;;
34741;SDS011;20968;42.696;23.360;2022-08-25T12:53:43;2.47;;;1.98;;
34741;SDS011;20968;42.696;23.360;2022-08-25T12:56:31;0.70;;;0.70;;
34741;SDS011;20968;42.696;23.360;2022-08-25T12:59:02;8.85;;;1.70;;
34741;SDS011;20968;42.696;23.360;2022-08-25T13:04:12;6.85;;;1.73;;
34741;SDS011;20968;42.696;23.360;2022-08-25T13:07:04;4.00;;;1.67;;
34741;SDS011;20968;42.696;23.360;2022-08-25T13:09:43;3.05;;;1.67;;
34741;SDS011;20968;42.696;23.360;2022-08-25T13:15:02;2.05;;;0.90;;
34741;SDS011;20968;42.696;23.360;2022-08-25T13:17:32;2.17;;;1.40;;
34741;SDS011;20968;42.696;23.360;2022-08-25T13:20:12;4.43;;;1.58;;
34741;SDS011;20968;42.696;23.360;2022-08-25T13:22:48;1.92;;;1.00;;
34741;SDS011;20968;42.696;23.360;2022-08-25T13:25:22;5.28;;;1.27;;
34741;SDS011;20968;42.696;23.360;2022-08-25T13:27:51;1.80;;;0.77;;
34741;SDS011;20968;42.696;23.360;2022-08-25T13:30:38;2.35;;;0.95;;
34741;SDS011;20968;42.696;23.360;2022-08-25T13:35:46;2.72;;;1.15;;
34741;SDS011;20968;42.696;23.360;2022-08-25T13:38:35;5.20;;;1.38;;
34741;SDS011;20968;42.696;23.360;2022-08-25T13:41:02;1.90;;;1.48;;
34741;SDS011;20968;42.696;23.360;2022-08-25T13:43:29;1.00;;;0.68;;
34741;SDS011;20968;42.696;23.360;2022-08-25T13:45:54;7.05;;;1.30;;
34741;SDS011;20968;42.696;23.360;2022-08-25T13:48:37;2.05;;;1.05;;
34741;SDS011;20968;42.696;23.360;2022-08-25T13:54:21;0.77;;;0.47;;
34741;SDS011;20968;42.696;23.360;2022-08-25T13:56:48;12.57;;;2.13;;
34741;SDS011;20968;42.696;23.360;2022-08-25T13:59:20;4.72;;;1.65;;
34741;SDS011;20968;42.696;23.360;2022-08-25T14:01:50;3.15;;;1.00;;
34741;SDS011;20968;42.696;23.360;2022-08-25T14:04:28;1.88;;;1.23;;
34741;SDS011;20968;42.696;23.360;2022-08-25T14:12:17;3.22;;;1.38;;
34741;SDS011;20968;42.696;23.360;2022-08-25T14:14:59;5.47;;;1.25;;
34741;SDS011;20968;42.696;23.360;2022-08-25T14:17:38;1.00;;;0.77;;
34741;SDS011;20968;42.696;23.360;2022-08-25T14:20:16;2.88;;;1.08;;
34741;SDS011;20968;42.696;23.360;2022-08-25T14:22:45;3.13;;;1.00;;
34741;SDS011;20968;42.696;23.360;2022-08-25T14:25:12;0.68;;;0.50;;
34741;SDS011;20968;42.696;23.360;2022-08-25T14:27:40;6.85;;;2.05;;
34741;SDS011;20968;42.696;23.360;2022-08-25T14:30:07;7.68;;;3.58;;
34741;SDS011;20968;42.696;23.360;2022-08-25T14:32:33;2.78;;;0.65;;
34741;SDS011;20968;42.696;23.360;2022-08-25T14:34:58;1.33;;;0.80;;
34741;SDS011;20968;42.696;23.360;2022-08-25T14:37:24;1.42;;;0.73;;
34741;SDS011;20968;42.696;23.360;2022-08-25T14:39:49;5.15;;;1.90;;
34741;SDS011;20968;42.696;23.360;2022-08-25T14:42:16;5.45;;;0.90;;
34741;SDS011;20968;42.696;23.360;2022-08-25T14:44:41;1.75;;;0.70;;
34741;SDS011;20968;42.696;23.360;2022-08-25T14:47:07;1.48;;;0.73;;
34741;SDS011;20968;42.696;23.360;2022-08-25T14:49:35;4.60;;;1.40;;
34741;SDS011;20968;42.696;23.360;2022-08-25T14:52:37;6.45;;;1.73;;
34741;SDS011;20968;42.696;23.360;2022-08-25T14:54:56;5.40;;;1.08;;
34741;SDS011;20968;42.696;23.360;2022-08-25T14:57:22;3.40;;;0.93;;
34741;SDS011;20968;42.696;23.360;2022-08-25T14:59:48;3.63;;;1.70;;
34741;SDS011;20968;42.696;23.360;2022-08-25T15:02:14;1.92;;;1.23;;
34741;SDS011;20968;42.696;23.360;2022-08-25T15:04:47;2.85;;;1.15;;
34741;SDS011;20968;42.696;23.360;2022-08-25T15:07:16;19.38;;;2.25;;
34741;SDS011;20968;42.696;23.360;2022-08-25T15:10:00;33.75;;;3.95;;
34741;SDS011;20968;42.696;23.360;2022-08-25T15:12:26;6.68;;;2.08;;
34741;SDS011;20968;42.696;23.360;2022-08-25T15:14:51;5.40;;;1.45;;
34741;SDS011;20968;42.696;23.360;2022-08-25T15:17:16;4.90;;;1.30;;
34741;SDS011;20968;42.696;23.360;2022-08-25T15:19:42;2.58;;;1.98;;
34741;SDS011;20968;42.696;23.360;2022-08-25T15:22:08;4.55;;;0.95;;
34741;SDS011;20968;42.696;23.360;2022-08-25T15:24:33;3.10;;;0.73;;
34741;SDS011;20968;42.696;23.360;2022-08-25T15:26:59;4.22;;;1.40;;
34741;SDS011;20968;42.696;23.360;2022-08-25T15:29:29;12.18;;;2.25;;
34741;SDS011;20968;42.696;23.360;2022-08-25T15:32:00;5.63;;;1.13;;
34741;SDS011;20968;42.696;23.360;2022-08-25T15:34:27;2.72;;;1.30;;
34741;SDS011;20968;42.696;23.360;2022-08-25T15:36:53;2.50;;;0.80;;
34741;SDS011;20968;42.696;23.360;2022-08-25T15:39:20;2.35;;;1.65;;
34741;SDS011;20968;42.696;23.360;2022-08-25T15:41:46;4.50;;;1.45;;
34741;SDS011;20968;42.696;23.360;2022-08-25T15:44:16;1.55;;;1.23;;
34741;SDS011;20968;42.696;23.360;2022-08-25T15:46:41;4.85;;;1.52;;
34741;SDS011;20968;42.696;23.360;2022-08-25T15:49:07;1.95;;;1.17;;
34741;SDS011;20968;42.696;23.360;2022-08-25T15:51:33;1.00;;;0.90;;
34741;SDS011;20968;42.696;23.360;2022-08-25T15:53:58;3.78;;;1.92;;
34741;SDS011;20968;42.696;23.360;2022-08-25T15:56:24;8.93;;;2.03;;
34741;SDS011;20968;42.696;23.360;2022-08-25T15:58:50;1.25;;;0.73;;
34741;SDS011;20968;42.696;23.360;2022-08-25T16:01:17;1.27;;;1.17;;
34741;SDS011;20968;42.696;23.360;2022-08-25T16:03:52;4.95;;;1.05;;
34741;SDS011;20968;42.696;23.360;2022-08-25T16:06:18;3.33;;;0.82;;
34741;SDS011;20968;42.696;23.360;2022-08-25T16:08:44;4.80;;;1.35;;
34741;SDS011;20968;42.696;23.360;2022-08-25T16:11:17;2.28;;;1.55;;
34741;SDS011;20968;42.696;23.360;2022-08-25T16:13:49;1.35;;;1.15;;
34741;SDS011;20968;42.696;23.360;2022-08-25T16:16:17;4.28;;;1.20;;
34741;SDS011;20968;42.696;23.360;2022-08-25T16:18:43;7.68;;;2.05;;
34741;SDS011;20968;42.696;23.360;2022-08-25T16:21:10;10.10;;;1.40;;
34741;SDS011;20968;42.696;23.360;2022-08-25T16:23:36;0.77;;;0.63;;
34741;SDS011;20968;42.696;23.360;2022-08-25T16:26:04;1.98;;;1.08;;
34741;SDS011;20968;42.696;23.360;2022-08-25T16:28:32;2.78;;;1.40;;
34741;SDS011;20968;42.696;23.360;2022-08-25T16:30:59;1.67;;;1.33;;
34741;SDS011;20968;42.696;23.360;2022-08-25T16:33:25;5.63;;;1.63;;
34741;SDS011;20968;42.696;23.360;2022-08-25T16:35:50;4.97;;;1.45;;
34741;SDS011;20968;42.696;23.360;2022-08-25T16:38:16;5.95;;;2.03;;
34741;SDS011;20968;42.696;23.360;2022-08-25T16:40:42;2.30;;;1.20;;
34741;SDS011;20968;42.696;23.360;2022-08-25T16:43:10;3.47;;;1.70;;